sensor_id;sensor_type;location;lat;lon;timestamp;temperature;humidity
43679;DHT22;29279;50.858;4.392;2023-06-14T00:21:24;23.20;62.90
43679;DHT22;29279;50.858;4.392;2023-06-14T00:23:50;23.10;63.10
43679;DHT22;29279;50.858;4.392;2023-06-14T00:26:16;23.00;63.40
43679;DHT22;29279;50.858;4.392;2023-06-14T00:28:41;23.00;63.10
43679;DHT22;29279;50.858;4.392;2023-06-14T00:31:07;23.00;63.10
43679;DHT22;29279;50.858;4.392;2023-06-14T00:33:33;23.00;63.20
43679;DHT22;29279;50.858;4.392;2023-06-14T00:35:59;23.00;63.20
43679;DHT22;29279;50.858;4.392;2023-06-14T00:38:24;23.00;63.30
43679;DHT22;29279;50.858;4.392;2023-06-14T00:40:50;23.00;63.20
43679;DHT22;29279;50.858;4.392;2023-06-14T00:43:16;22.90;63.60
43679;DHT22;29279;50.858;4.392;2023-06-14T00:45:42;22.90;63.60
43679;DHT22;29279;50.858;4.392;2023-06-14T00:48:08;22.90;63.60
43679;DHT22;29279;50.858;4.392;2023-06-14T00:50:34;22.90;63.70
43679;DHT22;29279;50.858;4.392;2023-06-14T00:53:01;22.80;63.90
43679;DHT22;29279;50.858;4.392;2023-06-14T00:55:27;22.80;63.80
43679;DHT22;29279;50.858;4.392;2023-06-14T00:57:55;22.80;63.80
43679;DHT22;29279;50.858;4.392;2023-06-14T01:00:21;22.80;63.90
43679;DHT22;29279;50.858;4.392;2023-06-14T01:02:47;22.90;63.90
43679;DHT22;29279;50.858;4.392;2023-06-14T01:05:15;22.80;64.00
43679;DHT22;29279;50.858;4.392;2023-06-14T01:13:12;22.70;64.40
43679;DHT22;29279;50.858;4.392;2023-06-14T01:15:43;22.70;64.30
43679;DHT22;29279;50.858;4.392;2023-06-14T01:18:09;22.60;64.40
43679;DHT22;29279;50.858;4.392;2023-06-14T01:20:43;22.60;64.40
43679;DHT22;29279;50.858;4.392;2023-06-14T01:23:11;22.60;64.80
43679;DHT22;29279;50.858;4.392;2023-06-14T01:25:39;22.60;64.80
43679;DHT22;29279;50.858;4.392;2023-06-14T01:28:06;22.50;65.10
43679;DHT22;29279;50.858;4.392;2023-06-14T01:30:40;22.40;65.50
43679;DHT22;29279;50.858;4.392;2023-06-14T01:33:14;22.40;65.50
43679;DHT22;29279;50.858;4.392;2023-06-14T01:35:47;22.40;65.70
43679;DHT22;29279;50.858;4.392;2023-06-14T01:38:13;22.30;65.60
43679;DHT22;29279;50.858;4.392;2023-06-14T01:40:41;22.30;66.00
43679;DHT22;29279;50.858;4.392;2023-06-14T01:43:08;22.30;66.00
43679;DHT22;29279;50.858;4.392;2023-06-14T01:45:36;22.20;66.00
43679;DHT22;29279;50.858;4.392;2023-06-14T01:48:02;22.10;66.20
43679;DHT22;29279;50.858;4.392;2023-06-14T01:50:30;22.10;66.20
43679;DHT22;29279;50.858;4.392;2023-06-14T01:52:56;22.20;66.30
43679;DHT22;29279;50.858;4.392;2023-06-14T01:55:22;22.10;66.40
43679;DHT22;29279;50.858;4.392;2023-06-14T01:57:50;22.00;66.40
43679;DHT22;29279;50.858;4.392;2023-06-14T02:00:16;21.90;66.90
43679;DHT22;29279;50.858;4.392;2023-06-14T02:02:44;21.80;67.10
43679;DHT22;29279;50.858;4.392;2023-06-14T02:05:10;21.70;67.40
43679;DHT22;29279;50.858;4.392;2023-06-14T02:07:36;21.70;67.50
43679;DHT22;29279;50.858;4.392;2023-06-14T02:10:02;21.70;67.20
43679;DHT22;29279;50.858;4.392;2023-06-14T02:12:28;21.70;67.20
43679;DHT22;29279;50.858;4.392;2023-06-14T02:14:54;21.70;67.50
43679;DHT22;29279;50.858;4.392;2023-06-14T02:17:19;21.70;67.70
43679;DHT22;29279;50.858;4.392;2023-06-14T02:19:46;21.70;67.60
43679;DHT22;29279;50.858;4.392;2023-06-14T02:22:11;21.70;67.60
43679;DHT22;29279;50.858;4.392;2023-06-14T02:24:37;21.70;67.60
43679;DHT22;29279;50.858;4.392;2023-06-14T02:27:03;21.60;67.70
43679;DHT22;29279;50.858;4.392;2023-06-14T02:29:29;21.60;67.80
43679;DHT22;29279;50.858;4.392;2023-06-14T02:31:54;21.60;67.50
43679;DHT22;29279;50.858;4.392;2023-06-14T02:34:20;21.60;67.90
43679;DHT22;29279;50.858;4.392;2023-06-14T02:36:47;21.50;67.80
43679;DHT22;29279;50.858;4.392;2023-06-14T02:39:13;21.50;68.10
43679;DHT22;29279;50.858;4.392;2023-06-14T02:41:39;21.50;68.10
43679;DHT22;29279;50.858;4.392;2023-06-14T02:44:06;21.50;68.10
43679;DHT22;29279;50.858;4.392;2023-06-14T02:46:32;21.50;68.20
43679;DHT22;29279;50.858;4.392;2023-06-14T02:48:57;21.40;68.30
43679;DHT22;29279;50.858;4.392;2023-06-14T02:51:23;21.40;68.50
43679;DHT22;29279;50.858;4.392;2023-06-14T02:53:48;21.40;68.50
43679;DHT22;29279;50.858;4.392;2023-06-14T02:56:14;21.30;68.70
43679;DHT22;29279;50.858;4.392;2023-06-14T02:58:43;21.30;68.70
43679;DHT22;29279;50.858;4.392;2023-06-14T03:01:09;21.30;68.90
43679;DHT22;29279;50.858;4.392;2023-06-14T03:03:38;21.20;69.10
43679;DHT22;29279;50.858;4.392;2023-06-14T03:06:04;21.20;69.00
43679;DHT22;29279;50.858;4.392;2023-06-14T03:08:33;21.10;69.10
43679;DHT22;29279;50.858;4.392;2023-06-14T03:11:04;21.10;69.40
43679;DHT22;29279;50.858;4.392;2023-06-14T03:13:34;21.00;69.50
43679;DHT22;29279;50.858;4.392;2023-06-14T03:16:00;21.00;69.50
43679;DHT22;29279;50.858;4.392;2023-06-14T03:18:31;21.00;69.60
43679;DHT22;29279;50.858;4.392;2023-06-14T03:21:01;21.00;69.40
43679;DHT22;29279;50.858;4.392;2023-06-14T03:23:26;21.00;69.60
43679;DHT22;29279;50.858;4.392;2023-06-14T03:25:52;20.90;69.70
43679;DHT22;29279;50.858;4.392;2023-06-14T03:28:18;20.90;69.60
43679;DHT22;29279;50.858;4.392;2023-06-14T03:30:44;20.90;69.80
43679;DHT22;29279;50.858;4.392;2023-06-14T03:33:10;20.90;69.90
43679;DHT22;29279;50.858;4.392;2023-06-14T03:35:36;20.90;70.10
43679;DHT22;29279;50.858;4.392;2023-06-14T03:38:02;20.90;69.90
43679;DHT22;29279;50.858;4.392;2023-06-14T03:40:29;20.80;70.00
43679;DHT22;29279;50.858;4.392;2023-06-14T03:42:55;20.70;70.30
43679;DHT22;29279;50.858;4.392;2023-06-14T03:45:21;20.70;70.30
43679;DHT22;29279;50.858;4.392;2023-06-14T03:47:46;20.70;70.50
43679;DHT22;29279;50.858;4.392;2023-06-14T03:50:12;20.70;70.60
43679;DHT22;29279;50.858;4.392;2023-06-14T03:52:38;20.70;70.80
43679;DHT22;29279;50.858;4.392;2023-06-14T03:55:04;20.60;70.80
43679;DHT22;29279;50.858;4.392;2023-06-14T03:57:30;20.60;70.80
43679;DHT22;29279;50.858;4.392;2023-06-14T03:59:56;20.60;71.00
43679;DHT22;29279;50.858;4.392;2023-06-14T04:02:22;20.50;70.80
43679;DHT22;29279;50.858;4.392;2023-06-14T04:04:48;20.50;70.80
43679;DHT22;29279;50.858;4.392;2023-06-14T04:07:17;20.60;70.90
43679;DHT22;29279;50.858;4.392;2023-06-14T04:09:45;20.60;70.90
43679;DHT22;29279;50.858;4.392;2023-06-14T04:12:11;20.60;70.70
43679;DHT22;29279;50.858;4.392;2023-06-14T04:14:38;20.70;70.70
43679;DHT22;29279;50.858;4.392;2023-06-14T04:17:05;20.70;70.80
43679;DHT22;29279;50.858;4.392;2023-06-14T04:19:30;20.60;70.90
43679;DHT22;29279;50.858;4.392;2023-06-14T04:21:56;20.70;70.80
43679;DHT22;29279;50.858;4.392;2023-06-14T04:24:22;20.60;70.80
43679;DHT22;29279;50.858;4.392;2023-06-14T04:26:49;20.60;71.00
43679;DHT22;29279;50.858;4.392;2023-06-14T04:29:15;20.60;70.70
43679;DHT22;29279;50.858;4.392;2023-06-14T04:31:45;20.60;70.70
43679;DHT22;29279;50.858;4.392;2023-06-14T04:34:12;20.60;71.00
43679;DHT22;29279;50.858;4.392;2023-06-14T04:36:44;20.60;70.90
43679;DHT22;29279;50.858;4.392;2023-06-14T04:39:20;20.60;70.70
43679;DHT22;29279;50.858;4.392;2023-06-14T04:41:46;20.60;70.90
43679;DHT22;29279;50.858;4.392;2023-06-14T04:44:13;20.60;70.90
43679;DHT22;29279;50.858;4.392;2023-06-14T04:46:39;20.80;71.00
43679;DHT22;29279;50.858;4.392;2023-06-14T04:49:17;20.80;70.80
43679;DHT22;29279;50.858;4.392;2023-06-14T04:51:44;20.90;70.70
43679;DHT22;29279;50.858;4.392;2023-06-14T04:54:10;20.80;70.70
43679;DHT22;29279;50.858;4.392;2023-06-14T04:56:40;20.70;71.10
43679;DHT22;29279;50.858;4.392;2023-06-14T04:59:05;20.70;70.90
43679;DHT22;29279;50.858;4.392;2023-06-14T05:01:32;20.70;70.90
43679;DHT22;29279;50.858;4.392;2023-06-14T05:03:58;20.70;71.30
43679;DHT22;29279;50.858;4.392;2023-06-14T05:06:24;20.80;70.90
43679;DHT22;29279;50.858;4.392;2023-06-14T05:08:50;20.90;70.90
43679;DHT22;29279;50.858;4.392;2023-06-14T05:11:16;20.90;70.90
43679;DHT22;29279;50.858;4.392;2023-06-14T05:13:44;21.00;71.10
43679;DHT22;29279;50.858;4.392;2023-06-14T05:16:11;20.90;70.70
43679;DHT22;29279;50.858;4.392;2023-06-14T05:18:37;21.00;70.60
43679;DHT22;29279;50.858;4.392;2023-06-14T05:21:03;21.00;70.50
43679;DHT22;29279;50.858;4.392;2023-06-14T05:23:31;21.10;70.30
43679;DHT22;29279;50.858;4.392;2023-06-14T05:25:56;21.10;70.50
43679;DHT22;29279;50.858;4.392;2023-06-14T05:28:22;21.20;70.30
43679;DHT22;29279;50.858;4.392;2023-06-14T05:30:48;21.30;69.90
43679;DHT22;29279;50.858;4.392;2023-06-14T05:33:14;21.30;70.00
43679;DHT22;29279;50.858;4.392;2023-06-14T05:35:39;21.50;69.90
43679;DHT22;29279;50.858;4.392;2023-06-14T05:38:05;21.50;69.80
43679;DHT22;29279;50.858;4.392;2023-06-14T05:40:33;21.60;69.70
43679;DHT22;29279;50.858;4.392;2023-06-14T05:42:59;21.60;69.80
43679;DHT22;29279;50.858;4.392;2023-06-14T05:45:24;21.60;69.60
43679;DHT22;29279;50.858;4.392;2023-06-14T05:47:50;21.80;69.60
43679;DHT22;29279;50.858;4.392;2023-06-14T05:50:16;21.80;69.30
43679;DHT22;29279;50.858;4.392;2023-06-14T05:52:42;21.90;69.30
43679;DHT22;29279;50.858;4.392;2023-06-14T05:55:08;22.10;69.50
43679;DHT22;29279;50.858;4.392;2023-06-14T05:57:34;22.10;68.80
43679;DHT22;29279;50.858;4.392;2023-06-14T06:00:01;22.10;69.10
43679;DHT22;29279;50.858;4.392;2023-06-14T06:02:26;22.20;68.80
43679;DHT22;29279;50.858;4.392;2023-06-14T06:04:52;22.30;68.90
43679;DHT22;29279;50.858;4.392;2023-06-14T06:07:18;22.30;68.70
43679;DHT22;29279;50.858;4.392;2023-06-14T06:09:43;22.40;68.60
43679;DHT22;29279;50.858;4.392;2023-06-14T06:12:09;22.50;68.40
43679;DHT22;29279;50.858;4.392;2023-06-14T06:14:35;22.60;68.40
43679;DHT22;29279;50.858;4.392;2023-06-14T06:17:01;22.70;68.10
43679;DHT22;29279;50.858;4.392;2023-06-14T06:19:27;22.80;68.00
43679;DHT22;29279;50.858;4.392;2023-06-14T06:21:52;22.90;67.90
43679;DHT22;29279;50.858;4.392;2023-06-14T06:24:18;23.00;67.80
43679;DHT22;29279;50.858;4.392;2023-06-14T06:26:44;23.10;67.40
43679;DHT22;29279;50.858;4.392;2023-06-14T06:29:09;23.00;67.30
43679;DHT22;29279;50.858;4.392;2023-06-14T06:31:35;23.10;67.50
43679;DHT22;29279;50.858;4.392;2023-06-14T06:34:01;23.10;67.50
43679;DHT22;29279;50.858;4.392;2023-06-14T06:36:27;23.10;67.40
43679;DHT22;29279;50.858;4.392;2023-06-14T06:38:52;23.10;67.10
43679;DHT22;29279;50.858;4.392;2023-06-14T06:41:18;23.20;66.70
43679;DHT22;29279;50.858;4.392;2023-06-14T06:43:44;23.20;66.20
43679;DHT22;29279;50.858;4.392;2023-06-14T06:46:10;23.20;66.10
43679;DHT22;29279;50.858;4.392;2023-06-14T06:48:35;23.30;66.00
43679;DHT22;29279;50.858;4.392;2023-06-14T06:51:01;23.40;65.90
43679;DHT22;29279;50.858;4.392;2023-06-14T06:53:27;23.50;65.70
43679;DHT22;29279;50.858;4.392;2023-06-14T06:55:52;23.70;65.30
43679;DHT22;29279;50.858;4.392;2023-06-14T06:58:18;23.70;65.60
43679;DHT22;29279;50.858;4.392;2023-06-14T07:00:44;23.80;65.80
43679;DHT22;29279;50.858;4.392;2023-06-14T07:03:09;23.80;66.00
43679;DHT22;29279;50.858;4.392;2023-06-14T07:05:35;24.00;65.80
43679;DHT22;29279;50.858;4.392;2023-06-14T07:08:01;24.00;65.20
43679;DHT22;29279;50.858;4.392;2023-06-14T07:10:26;24.10;64.80
43679;DHT22;29279;50.858;4.392;2023-06-14T07:12:52;24.20;65.20
43679;DHT22;29279;50.858;4.392;2023-06-14T07:15:18;24.30;65.20
43679;DHT22;29279;50.858;4.392;2023-06-14T07:17:44;24.50;65.00
43679;DHT22;29279;50.858;4.392;2023-06-14T07:20:10;24.60;64.80
43679;DHT22;29279;50.858;4.392;2023-06-14T07:22:43;24.70;64.30
43679;DHT22;29279;50.858;4.392;2023-06-14T07:25:12;24.80;64.00
43679;DHT22;29279;50.858;4.392;2023-06-14T07:27:41;24.80;64.20
43679;DHT22;29279;50.858;4.392;2023-06-14T07:30:08;24.80;64.10
43679;DHT22;29279;50.858;4.392;2023-06-14T07:32:34;24.70;64.40
43679;DHT22;29279;50.858;4.392;2023-06-14T07:34:59;24.90;64.90
43679;DHT22;29279;50.858;4.392;2023-06-14T07:37:25;25.00;64.50
43679;DHT22;29279;50.858;4.392;2023-06-14T07:39:51;25.10;64.90
43679;DHT22;29279;50.858;4.392;2023-06-14T07:42:17;25.20;65.10
43679;DHT22;29279;50.858;4.392;2023-06-14T07:44:42;25.40;64.90
43679;DHT22;29279;50.858;4.392;2023-06-14T07:47:08;25.50;65.00
43679;DHT22;29279;50.858;4.392;2023-06-14T07:49:33;25.60;64.30
43679;DHT22;29279;50.858;4.392;2023-06-14T07:51:59;25.60;64.20
43679;DHT22;29279;50.858;4.392;2023-06-14T07:54:25;25.80;64.30
43679;DHT22;29279;50.858;4.392;2023-06-14T07:56:52;25.90;64.30
43679;DHT22;29279;50.858;4.392;2023-06-14T07:59:18;26.00;64.00
43679;DHT22;29279;50.858;4.392;2023-06-14T08:01:43;26.10;63.80
43679;DHT22;29279;50.858;4.392;2023-06-14T08:04:14;26.20;63.20
43679;DHT22;29279;50.858;4.392;2023-06-14T08:06:40;26.40;63.20
43679;DHT22;29279;50.858;4.392;2023-06-14T08:09:09;26.50;63.00
43679;DHT22;29279;50.858;4.392;2023-06-14T08:11:36;26.60;62.90
43679;DHT22;29279;50.858;4.392;2023-06-14T08:14:01;26.70;62.80
43679;DHT22;29279;50.858;4.392;2023-06-14T08:16:27;26.70;62.20
43679;DHT22;29279;50.858;4.392;2023-06-14T08:18:53;26.70;62.20
43679;DHT22;29279;50.858;4.392;2023-06-14T08:21:19;26.80;61.90
43679;DHT22;29279;50.858;4.392;2023-06-14T08:23:44;26.80;62.00
43679;DHT22;29279;50.858;4.392;2023-06-14T08:26:10;26.90;61.40
43679;DHT22;29279;50.858;4.392;2023-06-14T08:28:36;27.00;61.50
43679;DHT22;29279;50.858;4.392;2023-06-14T08:31:02;27.10;61.40
43679;DHT22;29279;50.858;4.392;2023-06-14T08:33:28;27.20;61.30
43679;DHT22;29279;50.858;4.392;2023-06-14T08:35:53;27.40;61.40
43679;DHT22;29279;50.858;4.392;2023-06-14T08:38:19;27.50;61.10
43679;DHT22;29279;50.858;4.392;2023-06-14T08:40:48;27.60;60.80
43679;DHT22;29279;50.858;4.392;2023-06-14T08:43:15;27.60;60.30
43679;DHT22;29279;50.858;4.392;2023-06-14T08:45:41;27.60;59.70
43679;DHT22;29279;50.858;4.392;2023-06-14T08:48:07;27.60;59.50
43679;DHT22;29279;50.858;4.392;2023-06-14T08:50:34;27.60;59.80
43679;DHT22;29279;50.858;4.392;2023-06-14T08:53:02;27.60;59.70
43679;DHT22;29279;50.858;4.392;2023-06-14T08:55:29;27.70;60.10
43679;DHT22;29279;50.858;4.392;2023-06-14T08:57:57;27.90;60.20
43679;DHT22;29279;50.858;4.392;2023-06-14T09:00:27;28.00;60.20
43679;DHT22;29279;50.858;4.392;2023-06-14T09:02:53;28.00;60.70
43679;DHT22;29279;50.858;4.392;2023-06-14T09:05:28;28.10;61.00
43679;DHT22;29279;50.858;4.392;2023-06-14T09:07:54;28.30;61.20
43679;DHT22;29279;50.858;4.392;2023-06-14T09:10:21;28.40;61.10
43679;DHT22;29279;50.858;4.392;2023-06-14T09:12:47;28.50;61.00
43679;DHT22;29279;50.858;4.392;2023-06-14T09:15:13;28.40;61.00
43679;DHT22;29279;50.858;4.392;2023-06-14T09:17:40;28.50;60.80
43679;DHT22;29279;50.858;4.392;2023-06-14T09:20:08;28.60;60.80
43679;DHT22;29279;50.858;4.392;2023-06-14T09:22:39;28.70;60.00
43679;DHT22;29279;50.858;4.392;2023-06-14T09:25:05;28.70;59.30
43679;DHT22;29279;50.858;4.392;2023-06-14T09:27:32;28.80;58.90
43679;DHT22;29279;50.858;4.392;2023-06-14T09:29:58;29.00;58.90
43679;DHT22;29279;50.858;4.392;2023-06-14T09:32:25;29.30;59.10
43679;DHT22;29279;50.858;4.392;2023-06-14T09:34:50;29.40;59.00
43679;DHT22;29279;50.858;4.392;2023-06-14T09:37:29;29.30;58.60
43679;DHT22;29279;50.858;4.392;2023-06-14T09:39:56;29.50;58.40
43679;DHT22;29279;50.858;4.392;2023-06-14T09:42:22;29.70;58.00
43679;DHT22;29279;50.858;4.392;2023-06-14T09:44:52;29.80;57.90
43679;DHT22;29279;50.858;4.392;2023-06-14T09:47:18;29.80;57.30
43679;DHT22;29279;50.858;4.392;2023-06-14T09:49:44;29.90;57.60
43679;DHT22;29279;50.858;4.392;2023-06-14T09:52:20;29.90;56.90
43679;DHT22;29279;50.858;4.392;2023-06-14T09:54:47;29.90;57.10
43679;DHT22;29279;50.858;4.392;2023-06-14T09:57:20;30.00;57.40
43679;DHT22;29279;50.858;4.392;2023-06-14T09:59:47;30.10;57.80
43679;DHT22;29279;50.858;4.392;2023-06-14T10:02:25;30.30;57.30
43679;DHT22;29279;50.858;4.392;2023-06-14T10:05:07;30.40;56.70
43679;DHT22;29279;50.858;4.392;2023-06-14T10:08:19;30.50;56.10
43679;DHT22;29279;50.858;4.392;2023-06-14T10:10:20;30.60;55.20
43679;DHT22;29279;50.858;4.392;2023-06-14T10:12:46;30.80;55.00
43679;DHT22;29279;50.858;4.392;2023-06-14T10:15:19;31.10;55.10
43679;DHT22;29279;50.858;4.392;2023-06-14T10:17:50;31.30;54.30
43679;DHT22;29279;50.858;4.392;2023-06-14T10:21:03;31.60;54.90
43679;DHT22;29279;50.858;4.392;2023-06-14T10:23:28;31.70;54.10
43679;DHT22;29279;50.858;4.392;2023-06-14T10:25:57;31.80;54.10
43679;DHT22;29279;50.858;4.392;2023-06-14T10:28:23;32.10;54.20
43679;DHT22;29279;50.858;4.392;2023-06-14T10:31:09;32.30;53.30
43679;DHT22;29279;50.858;4.392;2023-06-14T10:33:56;32.40;53.80
43679;DHT22;29279;50.858;4.392;2023-06-14T10:41:38;33.20;51.90
43679;DHT22;29279;50.858;4.392;2023-06-14T10:46:40;33.80;51.60
43679;DHT22;29279;50.858;4.392;2023-06-14T10:49:11;33.90;52.00
43679;DHT22;29279;50.858;4.392;2023-06-14T10:51:42;33.90;52.00
43679;DHT22;29279;50.858;4.392;2023-06-14T10:54:13;34.10;51.80
43679;DHT22;29279;50.858;4.392;2023-06-14T10:56:46;34.50;52.20
43679;DHT22;29279;50.858;4.392;2023-06-14T10:59:12;34.80;51.40
43679;DHT22;29279;50.858;4.392;2023-06-14T11:04:48;35.10;51.10
43679;DHT22;29279;50.858;4.392;2023-06-14T11:10:40;35.90;50.70
43679;DHT22;29279;50.858;4.392;2023-06-14T11:13:06;35.70;49.90
43679;DHT22;29279;50.858;4.392;2023-06-14T11:15:36;35.90;50.00
43679;DHT22;29279;50.858;4.392;2023-06-14T11:18:05;36.10;50.20
43679;DHT22;29279;50.858;4.392;2023-06-14T11:20:33;36.40;49.00
43679;DHT22;29279;50.858;4.392;2023-06-14T11:22:59;36.30;49.30
43679;DHT22;29279;50.858;4.392;2023-06-14T11:25:25;36.70;50.20
43679;DHT22;29279;50.858;4.392;2023-06-14T11:27:52;37.00;48.80
43679;DHT22;29279;50.858;4.392;2023-06-14T11:30:18;37.20;48.80
43679;DHT22;29279;50.858;4.392;2023-06-14T11:32:51;37.00;48.80
43679;DHT22;29279;50.858;4.392;2023-06-14T11:35:19;37.10;48.20
43679;DHT22;29279;50.858;4.392;2023-06-14T11:37:45;37.30;48.30
43679;DHT22;29279;50.858;4.392;2023-06-14T11:40:11;37.30;49.00
43679;DHT22;29279;50.858;4.392;2023-06-14T11:42:39;37.40;48.00
43679;DHT22;29279;50.858;4.392;2023-06-14T11:45:09;37.50;48.50
43679;DHT22;29279;50.858;4.392;2023-06-14T11:47:36;37.50;47.80
43679;DHT22;29279;50.858;4.392;2023-06-14T11:50:03;37.50;48.60
43679;DHT22;29279;50.858;4.392;2023-06-14T11:52:29;37.90;47.80
43679;DHT22;29279;50.858;4.392;2023-06-14T11:54:57;38.10;48.10
43679;DHT22;29279;50.858;4.392;2023-06-14T11:57:23;38.20;47.90
43679;DHT22;29279;50.858;4.392;2023-06-14T11:59:49;38.60;47.70
43679;DHT22;29279;50.858;4.392;2023-06-14T12:02:19;39.00;48.30
43679;DHT22;29279;50.858;4.392;2023-06-14T12:04:48;39.30;47.20
43679;DHT22;29279;50.858;4.392;2023-06-14T12:07:15;39.00;47.20
43679;DHT22;29279;50.858;4.392;2023-06-14T12:12:28;39.00;47.00
43679;DHT22;29279;50.858;4.392;2023-06-14T12:14:57;38.90;46.20
43679;DHT22;29279;50.858;4.392;2023-06-14T12:17:23;38.90;46.30
43679;DHT22;29279;50.858;4.392;2023-06-14T12:19:49;39.00;46.20
43679;DHT22;29279;50.858;4.392;2023-06-14T12:22:16;38.90;46.10
43679;DHT22;29279;50.858;4.392;2023-06-14T12:24:45;39.00;46.50
43679;DHT22;29279;50.858;4.392;2023-06-14T12:27:11;39.50;46.20
43679;DHT22;29279;50.858;4.392;2023-06-14T12:29:41;39.60;45.90
43679;DHT22;29279;50.858;4.392;2023-06-14T12:32:11;39.40;45.40
43679;DHT22;29279;50.858;4.392;2023-06-14T12:34:37;39.20;45.60
43679;DHT22;29279;50.858;4.392;2023-06-14T12:37:03;39.10;47.30
43679;DHT22;29279;50.858;4.392;2023-06-14T12:39:32;39.40;45.70
43679;DHT22;29279;50.858;4.392;2023-06-14T12:41:58;39.20;46.50
43679;DHT22;29279;50.858;4.392;2023-06-14T12:44:24;39.40;46.60
43679;DHT22;29279;50.858;4.392;2023-06-14T12:46:50;39.00;46.20
43679;DHT22;29279;50.858;4.392;2023-06-14T12:49:18;39.10;46.10
43679;DHT22;29279;50.858;4.392;2023-06-14T12:51:45;39.30;45.80
43679;DHT22;29279;50.858;4.392;2023-06-14T12:54:11;39.50;46.20
43679;DHT22;29279;50.858;4.392;2023-06-14T12:56:37;39.50;46.10
43679;DHT22;29279;50.858;4.392;2023-06-14T12:59:03;39.70;47.00
43679;DHT22;29279;50.858;4.392;2023-06-14T13:01:28;39.90;45.90
43679;DHT22;29279;50.858;4.392;2023-06-14T13:03:54;39.90;46.70
43679;DHT22;29279;50.858;4.392;2023-06-14T13:06:23;39.90;46.00
43679;DHT22;29279;50.858;4.392;2023-06-14T13:08:50;39.90;46.10
43679;DHT22;29279;50.858;4.392;2023-06-14T13:11:15;39.70;44.80
43679;DHT22;29279;50.858;4.392;2023-06-14T13:13:41;39.30;45.50
43679;DHT22;29279;50.858;4.392;2023-06-14T13:16:07;39.50;46.20
43679;DHT22;29279;50.858;4.392;2023-06-14T13:18:33;39.40;45.30
43679;DHT22;29279;50.858;4.392;2023-06-14T13:20:58;39.40;45.60
43679;DHT22;29279;50.858;4.392;2023-06-14T13:23:24;39.60;45.30
43679;DHT22;29279;50.858;4.392;2023-06-14T13:25:50;39.10;46.00
43679;DHT22;29279;50.858;4.392;2023-06-14T13:28:16;39.20;46.00
43679;DHT22;29279;50.858;4.392;2023-06-14T13:30:42;39.20;45.30
43679;DHT22;29279;50.858;4.392;2023-06-14T13:33:08;39.00;45.70
43679;DHT22;29279;50.858;4.392;2023-06-14T13:35:34;37.90;44.90
43679;DHT22;29279;50.858;4.392;2023-06-14T13:38:00;36.10;47.10
43679;DHT22;29279;50.858;4.392;2023-06-14T13:40:26;36.50;47.90
43679;DHT22;29279;50.858;4.392;2023-06-14T13:42:51;37.00;46.50
43679;DHT22;29279;50.858;4.392;2023-06-14T13:45:17;37.30;45.30
43679;DHT22;29279;50.858;4.392;2023-06-14T13:47:43;37.70;46.40
43679;DHT22;29279;50.858;4.392;2023-06-14T13:50:09;37.90;44.90
43679;DHT22;29279;50.858;4.392;2023-06-14T13:52:35;38.00;45.50
43679;DHT22;29279;50.858;4.392;2023-06-14T13:55:01;38.50;44.30
43679;DHT22;29279;50.858;4.392;2023-06-14T13:57:26;38.20;44.80
43679;DHT22;29279;50.858;4.392;2023-06-14T13:59:52;38.60;44.80
43679;DHT22;29279;50.858;4.392;2023-06-14T14:02:20;38.90;45.10
43679;DHT22;29279;50.858;4.392;2023-06-14T14:04:46;38.90;44.80
43679;DHT22;29279;50.858;4.392;2023-06-14T14:07:18;38.60;44.50
43679;DHT22;29279;50.858;4.392;2023-06-14T14:09:44;38.30;45.50
43679;DHT22;29279;50.858;4.392;2023-06-14T14:12:10;38.50;45.70
43679;DHT22;29279;50.858;4.392;2023-06-14T14:14:36;38.50;44.80
43679;DHT22;29279;50.858;4.392;2023-06-14T14:17:02;38.30;45.70
43679;DHT22;29279;50.858;4.392;2023-06-14T14:19:28;38.20;44.90
43679;DHT22;29279;50.858;4.392;2023-06-14T14:21:53;37.80;44.70
43679;DHT22;29279;50.858;4.392;2023-06-14T14:24:19;37.70;45.20
43679;DHT22;29279;50.858;4.392;2023-06-14T14:26:45;37.20;44.40
43679;DHT22;29279;50.858;4.392;2023-06-14T14:29:14;36.90;46.30
43679;DHT22;29279;50.858;4.392;2023-06-14T14:31:40;37.20;46.20
43679;DHT22;29279;50.858;4.392;2023-06-14T14:34:05;37.10;45.80
43679;DHT22;29279;50.858;4.392;2023-06-14T14:36:31;36.90;45.00
43679;DHT22;29279;50.858;4.392;2023-06-14T14:38:58;36.70;45.40
43679;DHT22;29279;50.858;4.392;2023-06-14T14:41:24;36.70;45.20
43679;DHT22;29279;50.858;4.392;2023-06-14T14:43:50;36.80;44.90
43679;DHT22;29279;50.858;4.392;2023-06-14T14:46:16;36.60;45.20
43679;DHT22;29279;50.858;4.392;2023-06-14T14:48:42;36.00;45.00
43679;DHT22;29279;50.858;4.392;2023-06-14T14:51:08;35.80;45.80
43679;DHT22;29279;50.858;4.392;2023-06-14T14:53:33;35.80;45.40
43679;DHT22;29279;50.858;4.392;2023-06-14T14:55:59;35.80;46.00
43679;DHT22;29279;50.858;4.392;2023-06-14T14:58:25;35.70;47.10
43679;DHT22;29279;50.858;4.392;2023-06-14T15:00:51;35.50;45.00
43679;DHT22;29279;50.858;4.392;2023-06-14T15:03:16;35.30;45.70
43679;DHT22;29279;50.858;4.392;2023-06-14T15:05:42;35.10;45.00
43679;DHT22;29279;50.858;4.392;2023-06-14T15:08:08;34.70;46.00
43679;DHT22;29279;50.858;4.392;2023-06-14T15:10:38;34.70;45.80
43679;DHT22;29279;50.858;4.392;2023-06-14T15:13:06;34.30;46.00
43679;DHT22;29279;50.858;4.392;2023-06-14T15:15:33;34.00;46.00
43679;DHT22;29279;50.858;4.392;2023-06-14T15:17:59;33.80;46.20
43679;DHT22;29279;50.858;4.392;2023-06-14T15:20:26;33.60;46.10
43679;DHT22;29279;50.858;4.392;2023-06-14T15:22:52;33.20;47.40
43679;DHT22;29279;50.858;4.392;2023-06-14T15:25:18;33.00;47.80
43679;DHT22;29279;50.858;4.392;2023-06-14T15:27:45;32.80;47.10
43679;DHT22;29279;50.858;4.392;2023-06-14T15:30:11;32.70;47.30
43679;DHT22;29279;50.858;4.392;2023-06-14T15:32:37;32.40;48.30
43679;DHT22;29279;50.858;4.392;2023-06-14T15:35:02;32.50;49.20
43679;DHT22;29279;50.858;4.392;2023-06-14T15:37:28;32.40;48.30
43679;DHT22;29279;50.858;4.392;2023-06-14T15:39:54;32.10;48.10
43679;DHT22;29279;50.858;4.392;2023-06-14T15:42:19;32.20;47.60
43679;DHT22;29279;50.858;4.392;2023-06-14T15:44:48;32.00;48.30
43679;DHT22;29279;50.858;4.392;2023-06-14T15:47:13;32.10;47.50
43679;DHT22;29279;50.858;4.392;2023-06-14T15:49:39;31.70;49.00
43679;DHT22;29279;50.858;4.392;2023-06-14T15:52:05;31.70;49.30
43679;DHT22;29279;50.858;4.392;2023-06-14T15:54:32;31.90;48.60
43679;DHT22;29279;50.858;4.392;2023-06-14T15:56:57;31.90;49.40
43679;DHT22;29279;50.858;4.392;2023-06-14T15:59:23;31.90;48.30
43679;DHT22;29279;50.858;4.392;2023-06-14T16:01:49;32.00;48.50
43679;DHT22;29279;50.858;4.392;2023-06-14T16:04:15;32.10;48.70
43679;DHT22;29279;50.858;4.392;2023-06-14T16:06:40;32.00;47.90
43679;DHT22;29279;50.858;4.392;2023-06-14T16:09:06;31.70;48.30
43679;DHT22;29279;50.858;4.392;2023-06-14T16:11:32;31.70;48.40